Etusivu
METAR-TAF:

METAR-TAF

Lentoasemat :

Kelibia, Tunisia

Leveyspiiri: 36-51N, Pituuspiiri: 011-05E, korkeus merenpinnasta: 29 m

Tämänhetkinen sää

Tämä raportti tehtiin 53 minuuttia sitten, kello 03.00 UTC
Tuuli 3 kn etelästä, vaihdellen kaakon ja lounaan välillä
Lämpötila 11°C
Kosteus 50%
Ilmanpaine 1019 hPa

METAR: DTTL 250300Z AUTO 18003KT 140V220 NCD 11/01 Q1019

Aika: 04:53 (03:53 UTC)


TAF: puuttuu

Säähavainnot ja -ennusteet yli 4000 lentoasemalta (METAR- ja TAF-raportit).

Käytössä olevat sääasemat on merkitty karttaan keltaisilla ja punaisilla pisteillä.

Aseta hiiri pisteen päälle nähdäksesi sääaseman nimen.

Klikkaa sitten nähdäksesi säähavainnot ja -ennusteet.

Kartan vaihtaminen: klikkaa mustalla rastilla varustettuja vihreitä pisteitä, niin voit zoomata sisään; viivalla varustettua vihreää pistettä, niin voit zoomata ulos tai vihreitä nuolia, niin pääset viereisille kartoille.


METAR-TAF: